Time;durP1;ratioP1;P1;durP2;ratioP2;P2;SDS_P1;SDS_P2;PMS_P1;PMS_P2;Temp;Humidity;BMP_temperature;BMP_pressure;BME280_temperature;BME280_humidity;BME280_pressure;Samples;Min_cycle;Max_cycle;Signal;HPM_P1;HPM_P2
2022/04/10 00:00:28;;;;;;;;;26.00;24.25;;;;;6.02;79.49;101205.13;5056229;28;45330;-63
2022/04/10 00:02:53;;;;;;;;;13.25;13.25;;;;;6.04;79.65;101205.97;5055842;28;45553;-64
2022/04/10 00:05:19;;;;;;;;;17.75;16.50;;;;;6.05;79.71;101221.66;5054930;28;45434;-62
2022/04/10 00:07:44;;;;;;;;;19.50;18.00;;;;;6.00;80.45;101207.75;5071343;27;45287;-61
2022/04/10 00:10:09;;;;;;;;;18.00;17.75;;;;;6.03;80.35;101212.97;5055557;28;45352;-62
2022/04/10 00:12:35;;;;;;;;;21.00;15.50;;;;;6.02;79.80;101215.56;5056393;28;45575;-63
2022/04/10 00:15:03;;;;;;;;;15.25;14.25;;;;;5.99;80.47;101203.41;5055670;28;46579;-61
2022/04/10 00:17:29;;;;;;;;;17.50;14.75;;;;;5.95;79.98;101204.31;5055767;28;45322;-60
2022/04/10 00:19:54;;;;;;;;;17.25;12.00;;;;;5.92;79.85;101189.53;5055875;28;45365;-60
2022/04/10 00:22:19;;;;;;;;;14.25;12.75;;;;;5.91;79.21;101195.63;5056029;28;45516;-60
2022/04/10 00:24:45;;;;;;;;;18.50;16.00;;;;;5.93;79.82;101211.31;5055844;28;45280;-59
2022/04/10 00:27:13;;;;;;;;;24.75;20.25;;;;;5.86;80.37;101187.00;5056136;28;45395;-60
2022/04/10 00:29:40;;;;;;;;;20.50;19.00;;;;;5.87;80.38;101196.56;5054985;28;45431;-60
2022/04/10 00:32:05;;;;;;;;;20.50;17.00;;;;;5.86;79.89;101200.03;5056206;28;45537;-61
2022/04/10 00:34:31;;;;;;;;;17.00;14.00;;;;;5.82;80.47;101193.97;5055522;28;46764;-60
2022/04/10 00:36:56;;;;;;;;;14.50;12.25;;;;;5.82;80.29;101198.34;5055737;28;45342;-62
2022/04/10 00:39:21;;;;;;;;;16.50;12.50;;;;;5.78;79.94;101200.09;5055812;28;45439;-62
2022/04/10 00:41:49;;;;;;;;;16.25;15.50;;;;;5.78;80.04;101194.03;5055943;28;45322;-60
2022/04/10 00:44:14;;;;;;;;;18.50;14.50;;;;;5.77;78.99;101197.53;5055760;28;46256;-58
2022/04/10 00:46:40;;;;;;;;;26.25;25.00;;;;;5.72;79.83;101194.94;5055445;28;45307;-62
2022/04/10 00:49:06;;;;;;;;;12.25;12.25;;;;;5.73;79.78;101195.84;5055621;28;45314;-61
2022/04/10 00:51:43;;;;;;;;;24.00;18.25;;;;;5.70;79.87;101194.97;5055704;28;45242;-62
2022/04/10 00:54:09;;;;;;;;;18.00;16.75;;;;;5.69;79.73;101197.59;5055700;28;46272;-62
2022/04/10 00:56:35;;;;;;;;;16.00;14.50;;;;;5.65;79.77;101195.91;5055970;28;45433;-61
2022/04/10 00:59:02;;;;;;;;;13.75;13.75;;;;;5.63;79.34;101201.16;5055481;28;45297;-61
2022/04/10 01:01:28;;;;;;;;;24.50;22.75;;;;;5.59;79.78;101195.94;5055660;28;45493;-61
2022/04/10 01:03:53;;;;;;;;;28.50;23.00;;;;;5.59;80.04;101201.19;5055083;28;45275;-62
2022/04/10 01:06:18;;;;;;;;;22.75;21.75;;;;;5.56;80.44;101199.47;5055127;28;45303;-59
2022/04/10 01:08:44;;;;;;;;;23.00;21.75;;;;;5.53;80.29;101197.75;5055436;28;45276;-59
2022/04/10 01:11:09;;;;;;;;;25.00;24.50;;;;;5.53;80.48;101195.13;5056011;28;45300;-61
2022/04/10 01:13:35;;;;;;;;;24.50;24.50;;;;;5.51;80.62;101196.91;5055702;28;45410;-58
2022/04/10 01:16:01;;;;;;;;;23.50;22.50;;;;;5.49;81.06;101197.81;5055356;28;45327;-59
2022/04/10 01:18:26;;;;;;;;;24.50;20.50;;;;;5.49;80.82;101208.25;5054928;28;45999;-63
2022/04/10 01:20:52;;;;;;;;;22.00;21.00;;;;;5.48;81.15;101201.28;5055104;28;45535;-61
2022/04/10 01:23:18;;;;;;;;;18.25;17.75;;;;;5.44;81.25;101202.19;5054847;28;46444;-61
2022/04/10 01:25:44;;;;;;;;;19.75;19.75;;;;;5.43;80.80;101197.84;5054986;28;45449;-60
2022/04/10 01:28:13;;;;;;;;;18.50;16.50;;;;;5.41;80.70;101200.47;5055306;28;45397;-61
2022/04/10 01:30:39;;;;;;;;;19.25;19.25;;;;;5.35;81.17;101182.25;5055584;28;45245;-62
2022/04/10 01:33:05;;;;;;;;;20.25;18.75;;;;;5.38;80.54;101201.38;5054752;28;46304;-59
2022/04/10 01:35:32;;;;;;;;;20.00;20.00;;;;;5.37;81.61;101194.44;5055006;28;45368;-60
2022/04/10 01:38:00;;;;;;;;;17.25;16.50;;;;;5.32;81.05;101185.78;5055372;28;45934;-60
2022/04/10 01:40:26;;;;;;;;;21.00;17.50;;;;;5.30;81.17;101187.53;5055038;28;45406;-61
2022/04/10 01:42:52;;;;;;;;;21.00;19.50;;;;;5.27;81.69;101182.31;5054500;28;45486;-60
2022/04/10 01:45:17;;;;;;;;;19.75;18.75;;;;;5.28;81.99;101197.09;5054623;28;45454;-59
2022/04/10 01:47:43;;;;;;;;;20.00;18.50;;;;;5.26;81.17;101191.91;5054928;27;45236;-58
2022/04/10 01:50:09;;;;;;;;;19.25;17.25;;;;;5.23;81.94;101188.44;5054695;28;45488;-60
2022/04/10 01:52:35;;;;;;;;;18.00;14.75;;;;;5.22;81.50;101184.09;5054320;28;46341;-58
2022/04/10 01:55:00;;;;;;;;;22.75;19.75;;;;;5.21;81.61;101183.25;5054543;28;45279;-59
2022/04/10 01:57:25;;;;;;;;;18.25;18.25;;;;;5.18;81.45;101174.56;5054382;28;45336;-61
2022/04/10 01:59:51;;;;;;;;;20.75;19.00;;;;;5.18;81.49;101177.16;5054678;28;45519;-58
2022/04/10 02:02:16;;;;;;;;;16.00;16.00;;;;;5.02;81.83;101152.97;5053949;28;45247;-60
2022/04/10 02:04:41;;;;;;;;;13.00;13.00;;;;;5.15;81.69;101179.81;5054578;28;45396;-59
2022/04/10 02:07:07;;;;;;;;;18.00;18.00;;;;;5.11;81.69;101172.00;5053148;28;45267;-61
2022/04/10 02:09:32;;;;;;;;;19.25;17.50;;;;;5.07;81.85;101172.91;5054775;28;45679;-60
2022/04/10 02:11:57;;;;;;;;;17.50;15.75;;;;;5.07;82.50;101175.50;5054276;28;45614;-61
2022/04/10 02:14:23;;;;;;;;;19.00;17.00;;;;;5.05;81.99;101179.88;5054131;28;45457;-59
2022/04/10 02:16:48;;;;;;;;;21.50;17.75;;;;;5.00;82.53;101167.78;5054349;28;45413;-60
2022/04/10 02:19:13;;;;;;;;;27.50;22.00;;;;;4.99;82.70;101169.50;5054666;28;45565;-60
2022/04/10 02:21:39;;;;;;;;;21.00;18.50;;;;;5.03;82.41;101173.81;5053922;28;46389;-60
2022/04/10 02:24:05;;;;;;;;;16.75;15.75;;;;;4.99;82.74;101177.31;5054032;28;45342;-60
2022/04/10 02:26:30;;;;;;;;;17.50;15.75;;;;;5.00;83.07;101186.03;5054222;28;45429;-61
2022/04/10 02:28:56;;;;;;;;;17.75;15.75;;;;;5.01;82.45;101187.75;5055300;28;45338;-58
2022/04/10 02:31:21;;;;;;;;;18.75;18.75;;;;;5.01;82.64;101190.34;5055723;28;46231;-59
2022/04/10 02:33:46;;;;;;;;;18.75;18.00;;;;;4.98;82.59;101180.81;5057304;28;48168;-61
2022/04/10 02:36:12;;;;;;;;;20.75;18.75;;;;;5.01;83.53;101187.75;5058251;28;45672;-61
2022/04/10 02:38:37;;;;;;;;;17.25;17.25;;;;;5.00;82.92;101192.09;5073509;27;45586;-61
2022/04/10 02:41:03;;;;;;;;;25.75;19.25;;;;;5.00;83.69;101186.03;5057215;28;45488;-60
2022/04/10 02:43:29;;;;;;;;;25.00;21.50;;;;;4.96;83.27;101187.78;5057402;28;45456;-59
2022/04/10 02:45:54;;;;;;;;;26.00;22.25;;;;;4.97;83.60;101194.72;5072963;27;45227;-60
2022/04/10 02:48:19;;;;;;;;;25.50;20.50;;;;;4.96;83.67;101201.69;5057201;28;45381;-59
2022/04/10 02:50:45;;;;;;;;;25.75;21.00;;;;;4.92;83.59;101193.88;5057363;28;45486;-62
2022/04/10 02:53:10;;;;;;;;;26.50;22.00;;;;;4.79;83.98;101170.50;5057423;28;45408;-60
2022/04/10 02:55:36;;;;;;;;;23.75;19.75;;;;;4.85;84.33;101182.66;5056775;28;45437;-60
2022/04/10 02:58:01;;;;;;;;;23.75;22.50;;;;;4.83;84.43;101198.28;5057969;28;45509;-59
2022/04/10 03:00:27;;;;;;;;;22.50;19.25;;;;;4.82;84.53;101204.38;5056876;28;46211;-60
2022/04/10 03:02:52;;;;;;;;;21.75;21.25;;;;;4.79;84.36;101196.56;5056708;28;45378;-60
2022/04/10 03:05:18;;;;;;;;;23.75;21.50;;;;;4.78;84.62;101194.84;5057028;28;45383;-61
2022/04/10 03:07:43;;;;;;;;;21.50;21.50;;;;;4.78;84.49;101194.00;5057337;28;45663;-59
2022/04/10 03:10:09;;;;;;;;;33.00;26.75;;;;;4.75;84.43;101196.59;5056666;28;45298;-61
2022/04/10 03:12:34;;;;;;;;;27.25;26.00;;;;;4.73;84.44;101193.13;5056953;28;45331;-60
2022/04/10 03:15:00;;;;;;;;;28.50;27.50;;;;;4.75;85.02;101204.41;5056840;28;45293;-60
2022/04/10 03:17:25;;;;;;;;;29.25;24.25;;;;;4.73;84.88;101201.81;5057092;28;45473;-60
2022/04/10 03:19:51;;;;;;;;;26.75;26.00;;;;;4.70;84.86;101196.63;5056624;28;46537;-58
2022/04/10 03:22:16;;;;;;;;;32.50;27.50;;;;;4.69;84.87;101200.09;5057008;28;45418;-61
2022/04/10 03:24:41;;;;;;;;;30.75;28.50;;;;;4.68;85.07;101198.38;5056953;28;45303;-60
2022/04/10 03:27:07;;;;;;;;;31.75;29.50;;;;;4.60;84.52;101187.13;5057109;28;45589;-60
2022/04/10 03:29:32;;;;;;;;;31.25;29.25;;;;;4.64;84.33;101204.47;5056614;28;45376;-60
2022/04/10 03:31:57;;;;;;;;;35.75;30.25;;;;;4.62;85.03;101196.66;5055301;28;45840;-59
2022/04/10 03:34:23;;;;;;;;;35.25;29.50;;;;;4.62;85.11;101201.88;5055564;28;45780;-63
2022/04/10 03:36:49;;;;;;;;;30.50;28.75;;;;;4.60;85.73;101206.22;5057201;28;45284;-60
2022/04/10 03:39:14;;;;;;;;;35.75;29.75;;;;;4.59;85.66;101199.28;5056626;28;46521;-58
2022/04/10 03:41:39;;;;;;;;;36.25;31.25;;;;;4.55;86.20;101197.56;5071949;28;45393;-58
2022/04/10 03:44:05;;;;;;;;;26.75;25.50;;;;;4.55;86.37;101202.78;5056416;28;45283;-59
2022/04/10 03:46:30;;;;;;;;;27.00;25.75;;;;;4.51;86.45;101204.56;5056912;28;45237;-59
2022/04/10 03:48:56;;;;;;;;;24.25;22.75;;;;;4.53;86.19;101207.13;5056288;28;46093;-60
2022/04/10 03:51:21;;;;;;;;;24.75;24.75;;;;;4.52;86.28;101205.41;5056536;28;45391;-60
2022/04/10 03:53:47;;;;;;;;;34.00;26.75;;;;;4.53;86.18;101204.53;5056649;28;45475;-58
2022/04/10 03:56:12;;;;;;;;;28.00;27.00;;;;;4.59;86.64;101211.47;5056530;28;45212;-58
2022/04/10 03:58:37;;;;;;;;;33.75;30.25;;;;;4.57;87.20;101197.56;5055797;28;45606;-59
2022/04/10 04:01:03;;;;;;;;;33.50;29.50;;;;;4.57;87.73;101202.78;5055962;28;45456;-59
2022/04/10 04:03:28;;;;;;;;;33.25;31.00;;;;;4.53;88.43;101204.53;5056095;28;45395;-58
2022/04/10 04:05:55;;;;;;;;;37.00;30.75;;;;;4.55;87.89;101207.13;5056383;28;45459;-58
2022/04/10 04:08:20;;;;;;;;;41.00;34.50;;;;;4.57;87.77;101208.84;5055958;28;46762;-58
2022/04/10 04:10:46;;;;;;;;;35.50;32.00;;;;;4.55;88.80;101205.38;5056147;28;45370;-60
2022/04/10 04:13:11;;;;;;;;;30.50;27.50;;;;;4.52;88.85;101202.78;5056151;28;45365;-60
2022/04/10 04:15:36;;;;;;;;;36.25;34.50;;;;;4.51;88.87;101193.25;5056101;28;45457;-60
2022/04/10 04:18:02;;;;;;;;;38.25;35.00;;;;;4.52;89.11;101194.97;5055619;28;45381;-59
2022/04/10 04:20:27;;;;;;;;;42.00;35.00;;;;;4.49;88.93;101185.47;5055797;28;45277;-61
2022/04/10 04:22:54;;;;;;;;;39.25;36.25;;;;;4.40;88.92;101188.09;5055880;28;45307;-58
2022/04/10 04:25:19;;;;;;;;;4.50;2.25;;;;;4.40;89.50;101195.94;5056403;28;45196;-59
2022/04/10 04:27:45;;;;;;;;;42.25;36.50;;;;;4.39;89.20;101199.41;5055417;28;47192;-59
2022/04/10 04:30:10;;;;;;;;;38.00;34.00;;;;;4.39;89.21;101207.22;5055454;28;45335;-62
2022/04/10 04:32:36;;;;;;;;;48.75;39.00;;;;;4.38;89.92;101208.09;5055540;28;45524;-60
2022/04/10 04:35:01;;;;;;;;;40.75;36.00;;;;;4.34;90.15;101198.56;5055866;28;45481;-57
2022/04/10 04:37:26;;;;;;;;;39.00;35.00;;;;;4.35;90.03;101208.97;5055306;28;45264;-60
2022/04/10 04:39:52;;;;;;;;;39.50;36.00;;;;;4.36;90.06;101209.84;5055595;28;45252;-59
2022/04/10 04:42:17;;;;;;;;;44.50;36.00;;;;;4.33;90.85;101213.31;5055993;28;45429;-62
2022/04/10 04:44:42;;;;;;;;;45.50;36.25;;;;;4.29;90.11;101215.94;5071255;27;45468;-60
2022/04/10 04:47:08;;;;;;;;;45.25;36.75;;;;;4.31;91.08;101222.88;5055285;28;46397;-60
2022/04/10 04:49:33;;;;;;;;;42.75;37.75;;;;;4.29;90.69;101223.75;5055268;28;45335;-59
2022/04/10 04:51:59;;;;;;;;;40.75;37.25;;;;;4.29;90.70;101232.41;5055079;28;45263;-60
2022/04/10 04:54:24;;;;;;;;;43.75;35.25;;;;;4.28;90.70;101237.66;5055483;28;45323;-61
2022/04/10 04:56:49;;;;;;;;;43.50;36.75;;;;;4.24;91.23;101242.00;5055368;28;46349;-60
2022/04/10 04:59:15;;;;;;;;;40.25;36.00;;;;;4.23;91.36;101241.09;5055182;28;45389;-61
2022/04/10 05:01:44;;;;;;;;;46.50;38.75;;;;;4.21;91.44;101239.41;5055237;28;45550;-60
2022/04/10 05:04:11;;;;;;;;;49.50;39.00;;;;;4.19;91.60;101247.19;5055381;28;45358;-59
2022/04/10 05:06:36;;;;;;;;;49.00;37.25;;;;;4.14;91.23;101237.69;5070715;28;46921;-59
2022/04/10 05:09:02;;;;;;;;;49.50;40.50;;;;;4.18;91.78;101249.81;5055098;28;45223;-61
2022/04/10 05:11:28;;;;;;;;;45.25;38.50;;;;;4.17;91.51;101246.34;5055322;28;45268;-62
2022/04/10 05:13:53;;;;;;;;;44.00;39.25;;;;;4.13;91.23;101238.56;5055615;28;45438;-59
2022/04/10 05:16:18;;;;;;;;;46.50;38.50;;;;;4.16;91.94;101255.03;5054965;28;46473;-61
2022/04/10 05:18:44;;;;;;;;;45.25;38.25;;;;;4.15;91.34;101242.03;5055118;28;45486;-60
2022/04/10 05:21:09;;;;;;;;;46.00;38.75;;;;;4.15;91.43;101252.44;5055082;28;45430;-60
2022/04/10 05:23:35;;;;;;;;;47.00;37.25;;;;;4.15;91.44;101249.84;5055321;28;45327;-61
2022/04/10 05:26:00;;;;;;;;;45.00;39.00;;;;;4.15;91.04;101240.25;5054940;28;46178;-61
2022/04/10 05:28:26;;;;;;;;;47.75;40.25;;;;;4.19;91.35;101248.94;5054845;28;45278;-61
2022/04/10 05:30:51;;;;;;;;;50.00;39.50;;;;;4.22;92.13;101251.53;5055079;28;45646;-58
2022/04/10 05:33:16;;;;;;;;;44.00;37.50;;;;;4.21;91.85;101247.22;5054751;28;45457;-61
2022/04/10 05:35:42;;;;;;;;;51.00;41.50;;;;;4.27;91.57;101251.53;5054635;28;45346;-63
2022/04/10 05:38:08;;;;;;;;;49.75;39.50;;;;;4.27;91.20;101259.34;5070209;27;45321;-61
2022/04/10 05:40:34;;;;;;;;;46.50;40.00;;;;;4.30;91.22;101262.81;5054786;28;45478;-59
2022/04/10 05:42:59;;;;;;;;;51.00;41.25;;;;;4.30;90.58;101256.75;5054811;28;45567;-60
2022/04/10 05:45:25;;;;;;;;;49.75;41.50;;;;;4.36;90.76;101267.13;5054282;28;46104;-59
2022/04/10 05:47:50;;;;;;;;;45.75;38.00;;;;;4.23;90.08;101241.09;5053526;28;45955;-60
2022/04/10 05:50:16;;;;;;;;;46.50;39.00;;;;;4.41;90.38;101274.91;5054565;28;45243;-59
2022/04/10 05:52:47;;;;;;;;;47.00;41.00;;;;;4.41;89.77;101265.38;5054802;28;45528;-59
2022/04/10 05:55:15;;;;;;;;;40.00;36.00;;;;;4.46;89.83;101271.44;5054468;28;46431;-62
2022/04/10 05:57:41;;;;;;;;;52.25;42.25;;;;;4.50;89.92;101274.88;5054267;28;45271;-59
2022/04/10 06:00:10;;;;;;;;;44.75;38.00;;;;;4.51;89.90;101277.50;5054674;28;45369;-60
2022/04/10 06:02:36;;;;;;;;;51.75;41.75;;;;;4.54;89.53;101274.00;5054868;28;45445;-58
2022/04/10 06:05:01;;;;;;;;;51.75;42.00;;;;;4.59;89.69;101287.03;5055680;28;46493;-59
2022/04/10 06:07:27;;;;;;;;;45.50;38.50;;;;;4.64;89.42;101287.88;5057887;28;45318;-61
2022/04/10 06:09:52;;;;;;;;;47.75;40.75;;;;;4.67;89.65;101273.06;5056914;28;45344;-59
2022/04/10 06:12:18;;;;;;;;;53.75;42.25;;;;;4.76;89.36;101295.63;5057997;28;45391;-58
2022/04/10 06:14:43;;;;;;;;;50.00;41.50;;;;;4.85;89.26;101291.25;5057565;28;46788;-58
2022/04/10 06:17:08;;;;;;;;;51.25;42.50;;;;;4.86;88.61;101287.78;5057766;28;45342;-59
2022/04/10 06:19:34;;;;;;;;;49.25;41.75;;;;;4.97;88.52;101296.41;5073103;27;45380;-60
2022/04/10 06:22:00;;;;;;;;;48.25;39.75;;;;;5.01;88.10;101297.25;5056415;28;45381;-62
2022/04/10 06:24:27;;;;;;;;;47.75;38.25;;;;;5.08;87.96;101296.34;5057673;28;46342;-60
2022/04/10 06:26:53;;;;;;;;;48.25;39.50;;;;;5.12;87.90;101301.53;5057755;28;45230;-60
2022/04/10 06:29:18;;;;;;;;;48.75;38.50;;;;;5.11;87.53;101285.91;5057222;28;45447;-62
2022/04/10 06:31:43;;;;;;;;;49.75;41.25;;;;;5.22;87.60;101296.25;5057379;28;45441;-59
2022/04/10 06:34:09;;;;;;;;;42.00;36.75;;;;;5.24;86.74;101291.88;5057059;28;46478;-61
2022/04/10 06:36:35;;;;;;;;;46.25;37.75;;;;;5.31;86.91;101296.22;5057446;28;45295;-61
2022/04/10 06:39:00;;;;;;;;;47.25;39.00;;;;;5.36;86.64;101283.13;5057595;28;45473;-60
2022/04/10 06:41:25;;;;;;;;;48.00;39.00;;;;;5.40;86.59;101290.06;5058048;28;45421;-61
2022/04/10 06:43:51;;;;;;;;;50.00;41.50;;;;;5.44;85.65;101293.53;5057120;28;45473;-60
2022/04/10 06:46:16;;;;;;;;;46.00;38.00;;;;;5.45;86.18;101292.66;5057181;28;45317;-61
2022/04/10 06:48:41;;;;;;;;;46.75;39.50;;;;;5.51;86.46;101290.00;5072827;27;45347;-59
2022/04/10 06:51:07;;;;;;;;;50.50;41.50;;;;;5.55;86.24;101291.69;5057350;28;45305;-60
2022/04/10 06:53:33;;;;;;;;;48.25;38.50;;;;;5.57;86.01;101292.56;5057063;28;47090;-59
2022/04/10 06:55:58;;;;;;;;;49.50;41.00;;;;;5.62;86.58;101289.88;5057145;28;45673;-59
2022/04/10 06:58:23;;;;;;;;;49.00;42.00;;;;;5.65;85.74;101293.34;5055796;28;45464;-59
2022/04/10 07:00:49;;;;;;;;;51.25;40.50;;;;;5.65;86.29;101284.63;5057097;28;45178;-60
2022/04/10 07:03:15;;;;;;;;;43.00;37.25;;;;;5.73;85.87;101287.19;5056660;28;46489;-59
2022/04/10 07:05:41;;;;;;;;;43.75;37.00;;;;;5.74;84.68;101286.31;5056924;28;45247;-58
2022/04/10 07:08:07;;;;;;;;;44.25;36.00;;;;;5.81;84.59;101285.38;5056826;28;45427;-59
2022/04/10 07:10:33;;;;;;;;;38.25;35.00;;;;;5.88;83.58;101288.81;5057112;28;45452;-59
2022/04/10 07:12:58;;;;;;;;;45.50;35.50;;;;;5.94;83.99;101292.22;5056814;28;45624;-60
2022/04/10 07:15:23;;;;;;;;;38.75;33.00;;;;;5.99;82.83;101279.13;5056284;28;45464;-60
2022/04/10 07:17:49;;;;;;;;;35.50;31.25;;;;;6.07;82.84;101279.94;5057001;28;45429;-60
2022/04/10 07:20:14;;;;;;;;;28.25;28.00;;;;;6.14;82.96;101281.63;5055749;28;45711;-59
2022/04/10 07:25:24;;;;;;;;;25.75;24.25;;;;;6.35;81.67;101287.50;5056575;28;45360;-61
2022/04/10 07:27:49;;;;;;;;;19.50;19.25;;;;;6.46;80.33;101286.50;5056409;28;45373;-61
2022/04/10 07:30:14;;;;;;;;;19.25;15.50;;;;;6.56;79.92;101286.38;5056480;28;45298;-61
2022/04/10 07:32:40;;;;;;;;;21.75;15.75;;;;;6.66;79.38;101291.50;5056245;28;45628;-58
2022/04/10 07:35:06;;;;;;;;;16.50;14.00;;;;;6.76;78.21;101287.88;5056271;28;45421;-59
2022/04/10 07:37:32;;;;;;;;;12.00;12.00;;;;;6.86;77.50;101289.47;5056666;28;45390;-60
2022/04/10 07:39:58;;;;;;;;;12.00;12.00;;;;;6.99;78.07;101298.03;5056688;28;45277;-58
2022/04/10 07:42:23;;;;;;;;;11.50;11.50;;;;;7.10;77.11;101299.66;5055920;28;47149;-62
2022/04/10 07:44:49;;;;;;;;;10.75;10.75;;;;;7.20;76.32;101297.75;5056356;28;45254;-60
2022/04/10 07:47:27;;;;;;;;;13.75;11.25;;;;;7.25;75.75;101285.44;5071660;28;45285;-61
2022/04/10 07:49:55;;;;;;;;;12.00;10.50;;;;;7.43;76.25;101293.06;5056593;28;45369;-60
2022/04/10 07:52:21;;;;;;;;;10.50;10.00;;;;;7.58;75.67;101301.53;5056054;28;46402;-60
2022/04/10 07:54:47;;;;;;;;;8.25;8.25;;;;;7.68;73.41;101292.66;5055904;28;45315;-58
2022/04/10 07:57:13;;;;;;;;;12.75;11.00;;;;;7.80;73.83;101293.34;5055701;28;45361;-59
2022/04/10 07:59:38;;;;;;;;;15.25;11.00;;;;;7.91;73.61;101299.25;5056165;28;45327;-59
2022/04/10 08:02:04;;;;;;;;;13.25;8.75;;;;;8.03;72.68;101295.56;5055639;28;48092;-60
2022/04/10 08:04:29;;;;;;;;;12.00;11.00;;;;;8.14;72.46;101298.84;5054812;28;45736;-61
2022/04/10 08:06:55;;;;;;;;;11.00;10.25;;;;;8.26;72.36;101296.88;5056317;28;45230;-59
2022/04/10 08:09:20;;;;;;;;;14.00;14.00;;;;;8.38;73.14;101298.38;5054981;28;45297;-60
2022/04/10 08:11:45;;;;;;;;;14.25;14.25;;;;;8.47;72.01;101299.09;5055812;28;46098;-60
2022/04/10 08:14:11;;;;;;;;;12.25;12.25;;;;;8.58;70.51;101298.91;5055890;28;45999;-60
2022/04/10 08:16:36;;;;;;;;;10.50;10.00;;;;;8.61;70.60;101293.59;5071430;28;45360;-60
2022/04/10 08:19:02;;;;;;;;;13.50;13.50;;;;;8.73;70.80;101296.88;5056179;28;45485;-62
2022/04/10 08:21:27;;;;;;;;;13.75;13.75;;;;;8.78;70.17;101287.13;5055862;28;45317;-61
2022/04/10 08:23:53;;;;;;;;;11.00;11.00;;;;;8.95;70.63;101292.00;5055788;28;45368;-60
2022/04/10 08:26:18;;;;;;;;;12.50;12.50;;;;;9.01;69.97;101277.91;5070539;27;45332;-59
2022/04/10 08:28:44;;;;;;;;;16.25;14.50;;;;;9.17;70.06;101289.75;5071375;27;45591;-60
2022/04/10 08:31:09;;;;;;;;;13.25;12.25;;;;;9.31;69.54;101291.19;5055363;28;45317;-61
2022/04/10 08:33:34;;;;;;;;;9.00;9.00;;;;;9.35;68.04;101277.09;5055564;28;45471;-59
2022/04/10 08:36:00;;;;;;;;;8.00;8.00;;;;;9.50;68.17;101289.84;5056176;28;45521;-61
2022/04/10 08:38:25;;;;;;;;;11.50;10.00;;;;;9.62;68.67;101291.34;5055700;28;45340;-61
2022/04/10 08:40:56;;;;;;;;;16.25;15.75;;;;;9.69;66.93;101293.81;5055298;28;46041;-60
2022/04/10 08:43:22;;;;;;;;;16.50;14.00;;;;;9.76;68.06;101291.00;5055573;28;45231;-61
2022/04/10 08:45:48;;;;;;;;;11.50;8.25;;;;;9.88;67.51;101289.81;5055297;28;45213;-59
2022/04/10 08:48:14;;;;;;;;;5.50;4.50;;;;;9.95;66.80;101295.78;5055808;28;45496;-61
2022/04/10 08:50:39;;;;;;;;;9.50;9.50;;;;;10.01;66.29;101295.63;5054933;28;45539;-61
2022/04/10 08:53:06;;;;;;;;;12.25;9.50;;;;;10.05;65.93;101291.13;5055017;28;45432;-60
2022/04/10 08:55:31;;;;;;;;;11.25;8.50;;;;;10.08;65.08;101299.81;5055433;28;45405;-59
2022/04/10 08:57:56;;;;;;;;;11.50;11.50;;;;;10.13;65.27;101298.81;5055070;28;45459;-63
2022/04/10 09:00:25;;;;;;;;;16.00;15.25;;;;;10.18;65.21;101294.28;5055034;28;45922;-61
2022/04/10 09:02:52;;;;;;;;;8.50;8.50;;;;;10.28;65.28;101297.56;5055126;28;45170;-60
2022/04/10 09:05:19;;;;;;;;;10.25;10.25;;;;;10.39;65.42;101298.13;5055262;28;45303;-60
2022/04/10 09:08:14;;;;;;;;;14.25;12.25;;;;;10.37;63.33;101271.84;5054913;28;45782;-63
2022/04/10 09:10:55;;;;;;;;;12.75;11.00;;;;;10.56;64.28;101292.38;5054980;28;46200;-62
2022/04/10 09:13:26;;;;;;;;;9.00;9.00;;;;;10.61;64.25;101298.41;5054537;28;45299;-61
2022/04/10 09:16:01;;;;;;;;;14.75;10.25;;;;;10.66;64.28;101291.25;5054520;28;45364;-62
2022/04/10 09:18:26;;;;;;;;;12.50;9.50;;;;;10.80;64.20;101295.25;5054852;28;45453;-62
2022/04/10 09:21:08;;;;;;;;;8.75;7.50;;;;;10.86;63.56;101294.19;5054295;28;46712;-60
2022/04/10 09:23:34;;;;;;;;;8.75;7.00;;;;;10.92;63.02;101294.88;5053453;28;45406;-61
2022/04/10 09:26:00;;;;;;;;;7.25;6.00;;;;;10.98;62.93;101285.91;5054755;28;45414;-60
2022/04/10 09:28:47;;;;;;;;;25.00;23.25;;;;;11.10;61.69;101287.31;5054540;28;45644;-62
2022/04/10 09:31:32;;;;;;;;;7.75;7.75;;;;;11.16;62.39;101284.47;5054347;28;47110;-60
2022/04/10 09:34:00;;;;;;;;;6.75;4.00;;;;;11.23;62.30;101285.16;5054552;28;45392;-62
2022/04/10 09:36:36;;;;;;;;;5.00;5.00;;;;;11.34;61.14;101292.72;5054565;28;45324;-65
2022/04/10 09:39:12;;;;;;;;;3.50;2.00;;;;;11.39;61.84;101296.06;5057255;28;45184;-60
2022/04/10 09:41:39;;;;;;;;;6.00;4.00;;;;;11.40;62.09;101288.13;5055274;28;46437;-62
2022/04/10 09:44:14;;;;;;;;;7.25;5.00;;;;;11.52;61.73;101293.91;5057341;28;45337;-62
2022/04/10 09:46:40;;;;;;;;;7.00;6.00;;;;;11.63;60.57;101297.03;5057393;28;45268;-60
2022/04/10 09:49:17;;;;;;;;;8.00;6.25;;;;;11.69;60.46;101303.91;5057805;28;45317;-60
2022/04/10 09:52:04;;;;;;;;;7.25;6.00;;;;;11.75;58.81;101297.53;5057429;28;46482;-62
2022/04/10 09:54:50;;;;;;;;;6.00;6.00;;;;;11.75;58.92;101290.50;5057766;28;45257;-61
2022/04/10 09:57:20;;;;;;;;;8.00;6.75;;;;;11.79;59.99;101299.16;5057455;28;45258;-61
2022/04/10 09:59:45;;;;;;;;;8.50;5.75;;;;;11.89;59.23;101297.94;5057730;28;45422;-63
2022/04/10 10:02:13;;;;;;;;;10.50;7.25;;;;;11.99;59.14;101294.06;5057220;28;45321;-61
2022/04/10 10:04:39;;;;;;;;;6.00;5.00;;;;;12.11;58.84;101292.81;5057531;28;45338;-60
2022/04/10 10:07:19;;;;;;;;;7.25;5.00;;;;;12.22;57.45;101286.28;5056385;28;45321;-61
2022/04/10 10:09:49;;;;;;;;;5.50;4.00;;;;;12.27;57.21;101287.00;5057624;28;45470;-59
2022/04/10 10:12:17;;;;;;;;;7.25;5.00;;;;;12.32;57.63;101285.03;5056684;28;46174;-63
2022/04/10 10:14:44;;;;;;;;;9.00;5.75;;;;;12.37;57.86;101280.47;5056895;28;45318;-61
2022/04/10 10:17:10;;;;;;;;;12.00;11.50;;;;;12.51;58.19;101281.72;5055561;28;45958;-62
2022/04/10 10:19:41;;;;;;;;;5.75;5.50;;;;;12.63;57.78;101276.00;5057448;28;45537;-60
2022/04/10 10:22:12;;;;;;;;;6.00;6.00;;;;;12.78;57.96;101268.44;5057126;28;45386;-61
2022/04/10 10:25:03;;;;;;;;;10.00;10.00;;;;;12.93;57.24;101275.75;5057045;28;45512;-63
2022/04/10 10:27:59;;;;;;;;;10.25;8.75;;;;;13.05;57.48;101276.19;5057041;28;45467;-62
2022/04/10 10:31:02;;;;;;;;;6.00;5.00;;;;;13.13;56.54;101269.66;5057040;28;45337;-63
2022/04/10 10:33:30;;;;;;;;;9.00;8.75;;;;;13.16;56.81;101268.69;5056681;28;45333;-59
2022/04/10 10:35:58;;;;;;;;;8.00;6.00;;;;;13.13;56.56;101259.09;5056304;28;45393;-61
2022/04/10 10:38:30;;;;;;;;;9.75;7.00;;;;;13.18;56.05;101261.56;5054999;28;45504;-61
2022/04/10 10:41:17;;;;;;;;;6.75;6.75;;;;;13.24;54.85;101266.59;5056416;28;45394;-60
2022/04/10 10:43:45;;;;;;;;;6.75;6.00;;;;;13.19;53.74;101258.00;5056307;28;46635;-61
2022/04/10 10:46:43;;;;;;;;;7.00;7.00;;;;;13.15;54.38;101256.41;5072096;27;45302;-62
2022/04/10 10:49:20;;;;;;;;;8.00;8.00;;;;;13.20;55.25;101256.22;5052852;28;45376;-60
2022/04/10 10:51:52;;;;;;;;;7.00;7.00;;;;;13.32;55.21;101252.22;5056796;27;45497;-63
2022/04/10 10:54:32;;;;;;;;;6.50;5.00;;;;;13.43;53.81;101247.38;5055995;28;46265;-61
2022/04/10 10:56:57;;;;;;;;;4.75;4.50;;;;;13.42;53.42;101245.66;5055819;28;45379;-60
2022/04/10 10:59:35;;;;;;;;;8.50;7.25;;;;;13.40;52.75;101242.19;5054929;28;45541;-62
2022/04/10 11:02:12;;;;;;;;;7.25;7.25;;;;;13.51;54.13;101240.00;5056024;28;45259;-61
2022/04/10 11:04:43;;;;;;;;;8.00;6.75;;;;;13.64;53.65;101237.69;5055770;27;46400;-61
2022/04/10 11:07:11;;;;;;;;;10.25;7.50;;;;;13.77;54.15;101240.66;5056528;28;45330;-62
2022/04/10 11:10:03;;;;;;;;;8.50;7.25;;;;;13.78;53.16;101204.53;5056315;28;45339;-62
2022/04/10 11:12:50;;;;;;;;;7.75;7.75;;;;;14.02;53.01;101227.25;5056119;28;45241;-64
2022/04/10 11:15:21;;;;;;;;;9.25;9.25;;;;;14.11;51.75;101222.47;5054060;28;47052;-66
2022/04/10 11:17:48;;;;;;;;;8.25;6.75;;;;;14.17;52.31;101222.19;5056330;28;45456;-67
2022/04/10 11:20:15;;;;;;;;;7.25;6.00;;;;;14.33;52.45;101219.72;5056632;28;45491;-64
2022/04/10 11:22:58;;;;;;;;;11.25;8.00;;;;;14.46;49.87;101215.56;5056149;28;45440;-61